createdAt,value
2023-09-30T00:01:30.599Z,98362.50
2023-09-30T00:03:38.908Z,98357.28
2023-09-30T00:05:46.936Z,98355.31
2023-09-30T00:07:58.082Z,98361.03
2023-09-30T00:10:07.180Z,98355.38
2023-09-30T00:12:15.233Z,98363.16
2023-09-30T00:14:20.676Z,98349.63
2023-09-30T00:16:31.389Z,98346.94
2023-09-30T00:18:39.416Z,98343.25
2023-09-30T00:20:47.419Z,98348.53
2023-09-30T00:22:55.249Z,98348.88
2023-09-30T00:25:03.337Z,98350.09
2023-09-30T00:27:11.348Z,98358.28
2023-09-30T00:29:19.577Z,98352.13
2023-09-30T00:31:31.325Z,98358.56
2023-09-30T00:33:40.186Z,98353.44
2023-09-30T00:35:48.654Z,98347.41
2023-09-30T00:37:56.659Z,98347.31
2023-09-30T00:40:05.066Z,98346.47
2023-09-30T00:42:13.505Z,98349.38
2023-09-30T00:44:21.845Z,98347.84
2023-09-30T00:46:35.299Z,98349.50
2023-09-30T00:48:44.490Z,98352.19
2023-09-30T00:50:50.377Z,98343.13
2023-09-30T00:52:59.096Z,98339.19
2023-09-30T00:55:07.624Z,98338.09
2023-09-30T00:57:17.805Z,98348.31
2023-09-30T00:59:28.074Z,98341.28
2023-09-30T01:01:38.768Z,98340.41
2023-09-30T01:03:47.357Z,98326.69
2023-09-30T01:05:55.748Z,98320.16
2023-09-30T01:08:06.286Z,98327.69
2023-09-30T01:10:14.531Z,98320.16
2023-09-30T01:12:22.886Z,98323.72
2023-09-30T01:14:31.896Z,98322.19
2023-09-30T01:16:42.916Z,98321.47
2023-09-30T01:18:51.303Z,98317.00
2023-09-30T01:20:58.066Z,98312.50
2023-09-30T01:23:09.000Z,98308.47
2023-09-30T01:25:17.251Z,98310.53
2023-09-30T01:27:26.960Z,98313.53
2023-09-30T01:29:35.078Z,98299.81
2023-09-30T01:31:43.847Z,98286.34
2023-09-30T01:33:55.816Z,98292.75
2023-09-30T01:36:02.062Z,98300.41
2023-09-30T01:38:12.655Z,98298.13
2023-09-30T01:40:20.931Z,98300.41
2023-09-30T01:42:29.055Z,98304.47
2023-09-30T01:44:38.192Z,98308.88
2023-09-30T01:46:46.186Z,98306.19
2023-09-30T01:48:54.512Z,98309.72
2023-09-30T01:51:02.443Z,98313.78
2023-09-30T01:53:13.299Z,98320.66
2023-09-30T01:55:21.358Z,98315.31
2023-09-30T01:57:29.525Z,98312.34
2023-09-30T01:59:37.746Z,98317.00
2023-09-30T02:01:47.475Z,98315.38
2023-09-30T02:03:55.888Z,98317.72
2023-09-30T02:06:05.020Z,98318.03
2023-09-30T02:08:15.695Z,98320.25
2023-09-30T02:10:22.762Z,98321.03
2023-09-30T02:12:31.726Z,98313.78
2023-09-30T02:14:40.117Z,98317.66
2023-09-30T02:16:48.326Z,98318.22
2023-09-30T02:18:56.396Z,98311.81
2023-09-30T02:21:05.484Z,98308.81
2023-09-30T02:23:18.462Z,98313.53
2023-09-30T02:25:27.671Z,98307.25
2023-09-30T02:27:35.689Z,98310.69
2023-09-30T02:29:43.774Z,98308.34
2023-09-30T02:31:51.843Z,98307.50
2023-09-30T02:34:00.287Z,98304.53
2023-09-30T02:36:11.536Z,98309.34
2023-09-30T02:38:22.388Z,98298.09
2023-09-30T02:40:30.345Z,98293.69
2023-09-30T02:42:38.387Z,98292.22
2023-09-30T02:44:43.795Z,98286.34
2023-09-30T02:46:51.842Z,98277.34
2023-09-30T02:48:59.883Z,98284.06
2023-09-30T02:51:08.016Z,98289.09
2023-09-30T02:53:16.407Z,98293.06
2023-09-30T02:55:27.142Z,98286.53
2023-09-30T02:57:36.864Z,98283.53
2023-09-30T02:59:45.621Z,98280.53
2023-09-30T03:01:54.124Z,98283.97
2023-09-30T03:04:00.824Z,98281.72
2023-09-30T03:06:09.237Z,98285.75
2023-09-30T03:08:19.078Z,98296.75
2023-09-30T03:10:30.364Z,98308.28
2023-09-30T03:12:38.610Z,98322.41
2023-09-30T03:14:46.833Z,98328.72
2023-09-30T03:16:54.899Z,98334.41
2023-09-30T03:19:00.517Z,98332.91
2023-09-30T03:21:18.142Z,98334.09
2023-09-30T03:23:30.894Z,98349.03
2023-09-30T03:25:43.537Z,98348.19
2023-09-30T03:27:52.253Z,98352.66
2023-09-30T03:30:00.272Z,98351.28
2023-09-30T03:32:08.853Z,98346.56
2023-09-30T03:34:17.574Z,98348.91
2023-09-30T03:36:26.254Z,98346.38
2023-09-30T03:38:34.177Z,98346.78
2023-09-30T03:40:50.336Z,98346.47
2023-09-30T03:42:59.942Z,98353.09
2023-09-30T03:45:09.668Z,98344.56
2023-09-30T03:47:17.897Z,98341.66
2023-09-30T03:49:26.050Z,98328.63
2023-09-30T03:51:33.983Z,98317.06
2023-09-30T03:53:42.088Z,98312.34
2023-09-30T03:55:52.957Z,98302.53
2023-09-30T03:58:01.374Z,98297.31
2023-09-30T04:00:12.805Z,98293.66
2023-09-30T04:02:21.187Z,98285.97
2023-09-30T04:04:29.608Z,98278.78
2023-09-30T04:06:40.218Z,98276.66
2023-09-30T04:08:48.247Z,98275.59
2023-09-30T04:11:00.431Z,98272.91
2023-09-30T04:13:05.944Z,98278.25
2023-09-30T04:15:15.531Z,98286.72
2023-09-30T04:17:24.483Z,98290.38
2023-09-30T04:19:33.544Z,98290.19
2023-09-30T04:21:41.616Z,98287.25
2023-09-30T04:23:50.589Z,98285.13
2023-09-30T04:26:01.644Z,98293.13
2023-09-30T04:28:09.832Z,98290.25
2023-09-30T04:30:19.045Z,98298.41
2023-09-30T04:32:29.232Z,98304.28
2023-09-30T04:34:37.597Z,98304.16
2023-09-30T04:36:46.258Z,98311.63
2023-09-30T04:38:54.350Z,98314.84
2023-09-30T04:41:05.043Z,98322.22
2023-09-30T04:43:13.066Z,98333.78
2023-09-30T04:45:22.136Z,98338.47
2023-09-30T04:47:30.482Z,98350.69
2023-09-30T04:49:39.101Z,98362.03
2023-09-30T04:51:47.042Z,98357.53
2023-09-30T04:53:59.003Z,98352.28
2023-09-30T04:56:09.791Z,98351.97
2023-09-30T04:58:18.106Z,98363.72
2023-09-30T05:00:27.373Z,98361.59
2023-09-30T05:02:35.982Z,98372.28
2023-09-30T05:04:44.378Z,98370.47
2023-09-30T05:06:52.530Z,98376.38
2023-09-30T05:09:01.387Z,98383.03
2023-09-30T05:11:12.127Z,98389.84
2023-09-30T05:13:17.452Z,98378.28
2023-09-30T05:15:27.111Z,98376.34
2023-09-30T05:17:35.541Z,98384.91
2023-09-30T05:19:44.119Z,98394.44
2023-09-30T05:21:53.062Z,98393.47
2023-09-30T05:24:01.530Z,98403.31
2023-09-30T05:26:12.311Z,98397.75
2023-09-30T05:28:20.381Z,98401.63
2023-09-30T05:30:28.749Z,98391.97
2023-09-30T05:32:39.548Z,98396.78
2023-09-30T05:34:49.328Z,98393.13
2023-09-30T05:36:57.257Z,98395.16
2023-09-30T05:39:06.151Z,98395.50
2023-09-30T05:41:18.525Z,98395.81
2023-09-30T05:43:28.429Z,98393.13
2023-09-30T05:45:38.388Z,98393.47
2023-09-30T05:47:48.744Z,98394.41
2023-09-30T05:49:56.881Z,98388.63
2023-09-30T05:52:05.322Z,98386.03
2023-09-30T05:54:13.574Z,98390.31
2023-09-30T05:56:24.593Z,98398.75
2023-09-30T05:58:33.214Z,98397.22
2023-09-30T06:00:43.454Z,98414.47
2023-09-30T06:02:53.160Z,98424.31
2023-09-30T06:05:02.236Z,98428.38
2023-09-30T06:07:11.313Z,98424.38
2023-09-30T06:11:30.987Z,98424.44
2023-09-30T06:13:39.484Z,98438.81
2023-09-30T06:15:48.270Z,98443.84
2023-09-30T06:17:57.470Z,98446.84
2023-09-30T06:20:11.009Z,98458.09
2023-09-30T06:22:19.171Z,98460.66
2023-09-30T06:24:28.506Z,98468.41
2023-09-30T06:26:39.337Z,98475.03
2023-09-30T06:28:49.227Z,98475.19
2023-09-30T06:30:57.634Z,98487.22
2023-09-30T06:33:06.764Z,98491.75
2023-09-30T06:35:12.888Z,98482.13
2023-09-30T06:37:21.210Z,98486.91
2023-09-30T06:39:30.936Z,98483.03
2023-09-30T06:41:41.732Z,98488.88
2023-09-30T06:43:53.699Z,98488.88
2023-09-30T06:46:03.143Z,98495.13
2023-09-30T06:48:14.260Z,98494.34
2023-09-30T06:50:23.361Z,98500.28
2023-09-30T06:52:32.073Z,98507.16
2023-09-30T06:54:40.262Z,98512.59
2023-09-30T06:56:51.118Z,98530.19
2023-09-30T06:58:59.360Z,98538.41
2023-09-30T07:01:07.805Z,98543.38
2023-09-30T07:03:16.848Z,98559.69
2023-09-30T07:05:25.129Z,98559.56
2023-09-30T07:07:33.592Z,98555.28
2023-09-30T07:09:41.946Z,98555.81
2023-09-30T07:11:53.662Z,98547.25
2023-09-30T07:14:02.262Z,98546.03
2023-09-30T07:16:11.713Z,98544.25
2023-09-30T07:18:20.660Z,98552.56
2023-09-30T07:20:29.388Z,98537.09
2023-09-30T07:22:50.250Z,98536.34
2023-09-30T07:25:06.983Z,98538.78
2023-09-30T07:27:27.671Z,98548.72
2023-09-30T07:29:36.381Z,98556.13
2023-09-30T07:31:44.515Z,98560.19
2023-09-30T07:33:53.836Z,98564.78
2023-09-30T07:36:02.148Z,98559.22
2023-09-30T07:38:10.661Z,98578.03
2023-09-30T07:40:19.064Z,98587.47
2023-09-30T07:42:29.888Z,98578.38
2023-09-30T07:44:38.637Z,98565.06
2023-09-30T07:46:48.415Z,98557.19
2023-09-30T07:48:56.868Z,98555.66
2023-09-30T07:51:05.735Z,98559.22
2023-09-30T07:53:13.721Z,98562.53
2023-09-30T07:55:21.953Z,98573.63
2023-09-30T07:57:32.651Z,98579.69
2023-09-30T07:59:40.773Z,98586.78
2023-09-30T08:01:48.728Z,98592.94
2023-09-30T08:03:57.396Z,98593.16
2023-09-30T08:06:07.072Z,98590.84
2023-09-30T08:08:15.814Z,98594.63
2023-09-30T08:10:24.103Z,98586.00
2023-09-30T08:12:34.975Z,98589.72
2023-09-30T08:14:45.919Z,98582.47
2023-09-30T08:16:54.279Z,98582.09
2023-09-30T08:19:00.048Z,98582.72
2023-09-30T08:21:09.833Z,98570.66
2023-09-30T08:23:18.044Z,98567.59
2023-09-30T08:25:26.139Z,98570.81
2023-09-30T08:27:34.363Z,98575.50
2023-09-30T08:29:42.576Z,98579.16
2023-09-30T08:31:51.711Z,98582.63
2023-09-30T08:33:59.954Z,98583.69
2023-09-30T08:36:09.817Z,98576.19
2023-09-30T08:38:19.334Z,98569.50
2023-09-30T08:40:27.460Z,98576.19
2023-09-30T08:42:38.152Z,98571.25
2023-09-30T08:44:46.556Z,98582.47
2023-09-30T08:46:55.895Z,98578.69
2023-09-30T08:49:07.300Z,98576.09
2023-09-30T08:51:15.353Z,98554.69
2023-09-30T08:53:24.196Z,98563.22
2023-09-30T08:55:33.135Z,98570.34
2023-09-30T08:57:45.145Z,98576.84
2023-09-30T08:59:54.136Z,98568.09
2023-09-30T09:02:02.838Z,98570.78
2023-09-30T09:04:11.848Z,98577.16
2023-09-30T09:06:20.474Z,98577.53
2023-09-30T09:08:30.776Z,98572.47
2023-09-30T09:10:39.346Z,98567.09
2023-09-30T09:13:00.001Z,98565.63
2023-09-30T09:15:08.070Z,98570.72
2023-09-30T09:17:17.325Z,98572.63
2023-09-30T09:19:25.922Z,98591.44
2023-09-30T09:21:34.147Z,98596.66
2023-09-30T09:23:45.900Z,98619.09
2023-09-30T09:25:53.984Z,98631.91
2023-09-30T09:28:04.570Z,98636.41
2023-09-30T09:30:23.633Z,98650.09
2023-09-30T09:32:31.735Z,98647.25
2023-09-30T09:34:37.551Z,98657.41
2023-09-30T09:36:47.749Z,98645.31
2023-09-30T09:38:56.925Z,98641.13
2023-09-30T09:41:05.638Z,98620.47
2023-09-30T09:43:17.739Z,98625.03
2023-09-30T09:45:24.505Z,98615.75
2023-09-30T09:47:34.018Z,98604.06
2023-09-30T09:49:42.376Z,98611.00
2023-09-30T09:51:51.525Z,98589.06
2023-09-30T09:54:00.206Z,98578.94
2023-09-30T09:56:13.108Z,98563.50
2023-09-30T09:58:25.138Z,98562.50
2023-09-30T10:00:35.411Z,98563.81
2023-09-30T10:02:44.521Z,98578.84
2023-09-30T10:04:52.696Z,98580.72
2023-09-30T10:07:01.585Z,98597.50
2023-09-30T10:09:13.131Z,98625.66
2023-09-30T10:11:22.148Z,98636.06
2023-09-30T10:13:57.173Z,98628.91
2023-09-30T10:16:05.169Z,98616.47
2023-09-30T10:18:16.673Z,98620.78
2023-09-30T10:20:32.116Z,98618.88
2023-09-30T10:22:42.425Z,98622.00
2023-09-30T10:24:48.887Z,98613.06
2023-09-30T10:27:27.171Z,98628.97
2023-09-30T10:29:46.389Z,98641.78
2023-09-30T10:31:54.738Z,98637.38
2023-09-30T10:34:25.490Z,98647.34
2023-09-30T10:36:31.990Z,98642.16
2023-09-30T10:38:44.659Z,98649.78
2023-09-30T10:40:52.035Z,98657.97
2023-09-30T10:43:00.125Z,98658.66
2023-09-30T10:45:09.863Z,98635.00
2023-09-30T10:47:39.572Z,98616.81
2023-09-30T10:49:48.186Z,98624.59
2023-09-30T10:51:57.727Z,98618.63
2023-09-30T10:54:06.647Z,98611.00
2023-09-30T10:56:15.203Z,98585.38
2023-09-30T10:58:23.921Z,98573.53
2023-09-30T11:00:34.678Z,98575.75
2023-09-30T11:02:54.741Z,98572.44
2023-09-30T11:05:13.206Z,98546.28
2023-09-30T11:07:27.918Z,98543.13
2023-09-30T11:09:38.415Z,98541.66
2023-09-30T11:11:50.179Z,98539.34
2023-09-30T11:13:58.274Z,98529.38
2023-09-30T11:16:09.938Z,98519.56
2023-09-30T11:18:19.878Z,98523.81
2023-09-30T11:20:28.419Z,98515.78
2023-09-30T11:22:36.489Z,98531.19
2023-09-30T11:24:44.705Z,98524.88
2023-09-30T11:26:57.771Z,98524.66
2023-09-30T11:29:13.038Z,98526.75
2023-09-30T11:31:24.106Z,98521.72
2023-09-30T11:33:33.254Z,98535.09
2023-09-30T11:35:41.422Z,98532.59
2023-09-30T11:37:49.610Z,98524.22
2023-09-30T11:39:58.057Z,98518.47
2023-09-30T11:42:06.431Z,98526.13
2023-09-30T11:44:18.978Z,98528.81
2023-09-30T11:46:28.794Z,98540.63
2023-09-30T11:48:36.925Z,98535.59
2023-09-30T11:50:54.352Z,98526.03
2023-09-30T11:53:03.301Z,98524.22
2023-09-30T11:55:14.949Z,98534.47
2023-09-30T11:57:23.320Z,98531.16
2023-09-30T11:59:31.360Z,98535.63
2023-09-30T12:01:42.609Z,98542.16
2023-09-30T12:03:50.920Z,98542.25
2023-09-30T12:06:01.812Z,98542.91
2023-09-30T12:08:10.382Z,98533.53
2023-09-30T12:10:18.454Z,98547.19
2023-09-30T12:12:27.037Z,98543.25
2023-09-30T12:14:36.053Z,98546.63
2023-09-30T12:16:49.289Z,98567.41
2023-09-30T12:18:58.078Z,98555.88
2023-09-30T12:21:07.941Z,98558.69
2023-09-30T12:23:15.940Z,98547.84
2023-09-30T12:25:25.816Z,98548.06
2023-09-30T12:27:34.076Z,98550.34
2023-09-30T12:29:43.427Z,98550.19
2023-09-30T12:31:56.370Z,98547.66
2023-09-30T12:34:08.982Z,98539.34
2023-09-30T12:36:15.001Z,98545.75
2023-09-30T12:38:23.110Z,98545.09
2023-09-30T12:40:31.210Z,98537.81
2023-09-30T12:42:39.702Z,98538.97
2023-09-30T12:44:47.999Z,98542.50
2023-09-30T12:46:58.930Z,98539.19
2023-09-30T12:49:07.431Z,98544.16
2023-09-30T12:51:15.556Z,98541.59
2023-09-30T12:53:23.821Z,98551.38
2023-09-30T12:55:32.238Z,98542.50
2023-09-30T12:57:40.719Z,98550.13
2023-09-30T12:59:50.529Z,98539.59
2023-09-30T13:02:01.630Z,98516.78
2023-09-30T13:04:10.708Z,98524.28
2023-09-30T13:06:19.306Z,98533.69
2023-09-30T13:08:27.304Z,98526.19
2023-09-30T13:10:35.264Z,98534.34
2023-09-30T13:12:44.116Z,98536.75
2023-09-30T13:14:49.557Z,98532.06
2023-09-30T13:17:02.904Z,98537.34
2023-09-30T13:19:11.181Z,98523.66
2023-09-30T13:21:19.409Z,98518.00
2023-09-30T13:23:28.949Z,98513.19
2023-09-30T13:25:36.889Z,98517.13
2023-09-30T13:27:44.688Z,98513.41
2023-09-30T13:29:52.760Z,98505.13
2023-09-30T13:32:05.716Z,98496.69
2023-09-30T13:34:15.644Z,98496.66
2023-09-30T13:36:23.544Z,98488.94
2023-09-30T13:38:31.473Z,98490.34
2023-09-30T13:40:41.325Z,98492.81
2023-09-30T13:42:49.735Z,98509.69
2023-09-30T13:44:58.780Z,98498.94
2023-09-30T13:47:11.314Z,98497.69
2023-09-30T13:49:19.551Z,98512.75
2023-09-30T13:51:27.577Z,98512.75
2023-09-30T13:53:36.146Z,98499.72
2023-09-30T13:55:44.882Z,98498.88
2023-09-30T13:57:53.050Z,98493.84
2023-09-30T14:00:01.463Z,98497.25
2023-09-30T14:02:12.329Z,98497.88
2023-09-30T14:04:20.407Z,98509.41
2023-09-30T14:06:30.614Z,98507.44
2023-09-30T14:08:39.413Z,98499.19
2023-09-30T14:10:49.830Z,98493.22
2023-09-30T14:12:59.059Z,98485.78
2023-09-30T14:15:08.317Z,98485.91
2023-09-30T14:17:19.412Z,98479.31
2023-09-30T14:19:27.587Z,98476.34
2023-09-30T14:21:36.311Z,98475.84
2023-09-30T14:23:44.549Z,98483.16
2023-09-30T14:25:53.401Z,98470.81
2023-09-30T14:28:01.930Z,98463.81
2023-09-30T14:30:11.514Z,98455.13
2023-09-30T14:32:22.242Z,98471.75
2023-09-30T14:34:30.301Z,98460.81
2023-09-30T14:36:38.293Z,98460.81
2023-09-30T14:38:47.560Z,98462.66
2023-09-30T14:41:00.913Z,98452.59
2023-09-30T14:43:09.531Z,98464.69
2023-09-30T14:45:17.863Z,98437.53
2023-09-30T14:47:28.509Z,98442.09
2023-09-30T14:49:36.758Z,98433.00
2023-09-30T14:51:42.252Z,98434.41
2023-09-30T14:53:50.727Z,98432.69
2023-09-30T14:55:58.653Z,98431.16
2023-09-30T14:58:07.048Z,98433.00
2023-09-30T15:00:18.765Z,98434.84
2023-09-30T15:02:30.017Z,98429.16
2023-09-30T15:04:38.596Z,98437.97
2023-09-30T15:06:47.417Z,98430.59
2023-09-30T15:08:55.627Z,98436.78
2023-09-30T15:11:04.488Z,98436.19
2023-09-30T15:13:12.774Z,98432.06
2023-09-30T15:15:21.022Z,98432.78
2023-09-30T15:17:32.393Z,98432.53
2023-09-30T15:19:40.661Z,98437.19
2023-09-30T15:21:48.822Z,98438.81
2023-09-30T15:23:57.224Z,98445.50
2023-09-30T15:26:05.756Z,98442.34
2023-09-30T15:28:13.972Z,98440.63
2023-09-30T15:30:22.252Z,98431.94
2023-09-30T15:32:33.077Z,98435.94
2023-09-30T15:34:42.308Z,98440.44
2023-09-30T15:36:50.420Z,98430.50
2023-09-30T15:38:58.399Z,98431.66
2023-09-30T15:41:04.998Z,98432.94
2023-09-30T15:43:13.835Z,98435.47
2023-09-30T15:45:26.157Z,98430.22
2023-09-30T15:47:37.011Z,98430.25
2023-09-30T15:49:44.988Z,98430.81
2023-09-30T15:51:54.645Z,98431.25
2023-09-30T15:54:02.723Z,98431.53
2023-09-30T15:56:08.303Z,98433.50
2023-09-30T15:58:16.445Z,98436.88
2023-09-30T16:00:25.034Z,98435.94
2023-09-30T16:02:33.209Z,98426.84
2023-09-30T16:04:44.074Z,98428.09
2023-09-30T16:06:52.746Z,98426.41
2023-09-30T16:09:00.859Z,98436.84
2023-09-30T16:11:08.790Z,98442.81
2023-09-30T16:13:19.604Z,98436.00
2023-09-30T16:15:28.199Z,98433.69
2023-09-30T16:17:36.442Z,98435.19
2023-09-30T16:19:47.702Z,98433.41
2023-09-30T16:21:56.271Z,98429.97
2023-09-30T16:24:04.593Z,98430.44
2023-09-30T16:26:12.695Z,98423.63
2023-09-30T16:28:21.003Z,98420.75
2023-09-30T16:30:30.553Z,98421.94
2023-09-30T16:32:41.025Z,98416.75
2023-09-30T16:34:52.287Z,98416.22
2023-09-30T16:37:01.482Z,98425.28
2023-09-30T16:39:10.000Z,98426.56
2023-09-30T16:41:20.454Z,98429.81
2023-09-30T16:43:28.502Z,98432.94
2023-09-30T16:45:36.476Z,98430.75
2023-09-30T16:47:44.687Z,98437.78
2023-09-30T16:49:55.719Z,98437.69
2023-09-30T16:52:03.878Z,98445.06
2023-09-30T16:54:12.362Z,98442.03
2023-09-30T16:56:20.275Z,98445.34
2023-09-30T16:58:28.740Z,98439.75
2023-09-30T17:00:36.761Z,98443.31
2023-09-30T17:02:42.681Z,98441.72
2023-09-30T17:04:50.737Z,98445.91
2023-09-30T17:07:01.399Z,98443.72
2023-09-30T17:09:09.666Z,98440.03
2023-09-30T17:11:22.314Z,98440.41
2023-09-30T17:13:30.292Z,98438.94
2023-09-30T17:15:38.249Z,98439.91
2023-09-30T17:17:46.309Z,98442.88
2023-09-30T17:19:54.856Z,98447.00
2023-09-30T17:22:06.360Z,98454.81
2023-09-30T17:24:15.236Z,98444.94
2023-09-30T17:26:20.561Z,98442.13
2023-09-30T17:28:29.481Z,98442.75
2023-09-30T17:30:42.459Z,98445.41
2023-09-30T17:32:54.181Z,98445.16
2023-09-30T17:35:02.165Z,98441.34
2023-09-30T17:37:12.829Z,98438.53
2023-09-30T17:39:21.072Z,98442.53
2023-09-30T17:41:29.231Z,98449.03
2023-09-30T17:43:40.143Z,98441.19
2023-09-30T17:45:48.186Z,98447.50
2023-09-30T17:47:56.306Z,98452.47
2023-09-30T17:50:06.493Z,98447.19
2023-09-30T17:52:17.213Z,98449.50
2023-09-30T17:54:25.362Z,98447.16
2023-09-30T17:56:33.359Z,98450.31
2023-09-30T17:58:41.257Z,98446.44
2023-09-30T18:00:52.495Z,98443.78
2023-09-30T18:03:00.991Z,98442.66
2023-09-30T18:05:09.645Z,98445.88
2023-09-30T18:07:20.409Z,98438.53
2023-09-30T18:09:28.593Z,98442.06
2023-09-30T18:11:36.587Z,98453.75
2023-09-30T18:13:45.215Z,98442.19
2023-09-30T18:15:53.280Z,98446.97
2023-09-30T18:18:12.063Z,98441.66
2023-09-30T18:20:21.459Z,98436.22
2023-09-30T18:22:32.299Z,98446.63
2023-09-30T18:24:40.316Z,98449.88
2023-09-30T18:26:50.247Z,98447.47
2023-09-30T18:28:58.322Z,98451.59
2023-09-30T18:31:06.758Z,98449.94
2023-09-30T18:33:16.247Z,98462.19
2023-09-30T18:35:24.359Z,98468.34
2023-09-30T18:37:35.291Z,98465.16
2023-09-30T18:39:43.923Z,98469.69
2023-09-30T18:41:52.618Z,98461.38
2023-09-30T18:44:00.892Z,98461.66
2023-09-30T18:46:13.397Z,98472.69
2023-09-30T18:48:21.465Z,98467.97
2023-09-30T18:50:29.635Z,98465.84
2023-09-30T18:52:40.399Z,98465.63
2023-09-30T18:54:48.495Z,98468.09
2023-09-30T18:56:56.436Z,98460.59
2023-09-30T18:59:05.013Z,98459.63
2023-09-30T19:01:13.725Z,98458.25
2023-09-30T19:03:21.865Z,98467.78
2023-09-30T19:05:31.580Z,98465.53
2023-09-30T19:07:42.727Z,98465.78
2023-09-30T19:09:51.156Z,98469.50
2023-09-30T19:11:59.776Z,98464.25
2023-09-30T19:14:09.037Z,98464.56
2023-09-30T19:16:17.793Z,98467.38
2023-09-30T19:18:25.758Z,98470.25
2023-09-30T19:20:33.833Z,98465.22
2023-09-30T19:22:45.269Z,98463.97
2023-09-30T19:24:53.371Z,98468.25
2023-09-30T19:27:01.258Z,98472.31
2023-09-30T19:29:09.811Z,98471.78
2023-09-30T19:31:18.956Z,98463.50
2023-09-30T19:33:28.764Z,98475.50
2023-09-30T19:35:36.701Z,98478.81
2023-09-30T19:37:47.395Z,98476.44
2023-09-30T19:39:55.367Z,98477.84
2023-09-30T19:42:03.552Z,98483.00
2023-09-30T19:44:12.550Z,98477.59
2023-09-30T19:46:20.698Z,98484.75
2023-09-30T19:48:29.206Z,98484.97
2023-09-30T19:50:37.774Z,98476.75
2023-09-30T19:52:48.318Z,98478.69
2023-09-30T19:54:56.424Z,98485.06
2023-09-30T19:57:05.634Z,98488.28
2023-09-30T19:59:14.044Z,98495.81
2023-09-30T20:01:23.541Z,98488.59
2023-09-30T20:03:31.732Z,98492.53
2023-09-30T20:05:40.620Z,98487.97
2023-09-30T20:07:51.893Z,98497.75
2023-09-30T20:10:01.182Z,98494.28
2023-09-30T20:12:13.305Z,98498.19
2023-09-30T20:14:21.798Z,98501.38
2023-09-30T20:16:31.102Z,98495.25
2023-09-30T20:18:39.455Z,98503.22
2023-09-30T20:20:49.846Z,98505.66
2023-09-30T20:23:00.422Z,98503.97
2023-09-30T20:25:10.490Z,98508.44
2023-09-30T20:27:18.727Z,98496.16
2023-09-30T20:29:26.660Z,98495.59
2023-09-30T20:31:36.289Z,98494.72
2023-09-30T20:33:45.000Z,98496.59
2023-09-30T20:35:53.460Z,98495.75
2023-09-30T20:38:04.898Z,98489.94
2023-09-30T20:40:15.100Z,98487.91
2023-09-30T20:42:23.226Z,98488.28
2023-09-30T20:44:32.045Z,98488.00
2023-09-30T20:46:40.711Z,98488.72
2023-09-30T20:48:47.069Z,98491.28
2023-09-30T20:50:55.079Z,98491.75
2023-09-30T20:55:41.076Z,98475.41
2023-09-30T20:57:50.491Z,98481.03
2023-09-30T20:59:58.547Z,98485.53
2023-09-30T21:02:09.341Z,98479.44
2023-09-30T21:04:17.922Z,98473.78
2023-09-30T21:06:26.551Z,98472.91
2023-09-30T21:08:37.971Z,98467.78
2023-09-30T21:10:46.654Z,98471.19
2023-09-30T21:12:54.828Z,98466.94
2023-09-30T21:15:03.939Z,98462.03
2023-09-30T21:17:12.481Z,98463.19
2023-09-30T21:19:21.037Z,98465.72
2023-09-30T21:21:29.420Z,98465.94
2023-09-30T21:23:37.712Z,98469.38
2023-09-30T21:25:46.215Z,98468.25
2023-09-30T21:27:55.698Z,98472.50
2023-09-30T21:30:05.638Z,98472.56
2023-09-30T21:32:14.881Z,98475.50
2023-09-30T21:34:23.193Z,98476.75
2023-09-30T21:36:31.530Z,98484.31
2023-09-30T21:38:43.583Z,98482.00
2023-09-30T21:40:49.313Z,98495.19
2023-09-30T21:42:57.653Z,98489.72
2023-09-30T21:45:08.937Z,98497.56
2023-09-30T21:47:17.116Z,98488.41
2023-09-30T21:49:25.689Z,98489.44
2023-09-30T21:51:34.105Z,98499.56
2023-09-30T21:53:45.106Z,98492.63
2023-09-30T21:55:53.656Z,98489.75
2023-09-30T21:58:01.954Z,98477.38
2023-09-30T22:00:18.230Z,98475.56
2023-09-30T22:02:28.323Z,98472.59
2023-09-30T22:04:37.041Z,98476.41
2023-09-30T22:06:45.702Z,98472.31
2023-09-30T22:08:57.578Z,98467.16
2023-09-30T22:11:06.522Z,98470.19
2023-09-30T22:13:14.957Z,98468.59
2023-09-30T22:15:24.849Z,98468.19
2023-09-30T22:17:33.371Z,98460.47
2023-09-30T22:19:41.528Z,98461.88
2023-09-30T22:21:49.936Z,98461.28
2023-09-30T22:24:01.116Z,98465.25
2023-09-30T22:26:09.869Z,98462.78
2023-09-30T22:28:18.243Z,98461.56
2023-09-30T22:30:26.796Z,98463.69
2023-09-30T22:32:33.390Z,98458.97
2023-09-30T22:34:41.544Z,98457.19
2023-09-30T22:36:48.385Z,98455.09
2023-09-30T22:38:56.805Z,98463.13
2023-09-30T22:41:09.006Z,98469.13
2023-09-30T22:43:17.631Z,98474.34
2023-09-30T22:45:26.590Z,98473.34
2023-09-30T22:47:46.304Z,98469.03
2023-09-30T22:49:54.990Z,98463.69
2023-09-30T22:52:03.300Z,98467.59
2023-09-30T22:54:11.953Z,98461.97
2023-09-30T22:56:24.644Z,98467.31
2023-09-30T22:58:33.182Z,98456.06
2023-09-30T23:00:44.198Z,98461.56
2023-09-30T23:02:53.761Z,98450.31
2023-09-30T23:05:02.459Z,98450.56
2023-09-30T23:07:11.095Z,98452.66
2023-09-30T23:09:23.107Z,98452.91
2023-09-30T23:11:34.454Z,98442.84
2023-09-30T23:13:42.870Z,98439.59
2023-09-30T23:15:51.600Z,98433.59
2023-09-30T23:18:00.251Z,98433.31
2023-09-30T23:20:09.120Z,98424.66
2023-09-30T23:22:19.487Z,98422.06
2023-09-30T23:24:28.300Z,98421.56
2023-09-30T23:26:39.231Z,98422.00
2023-09-30T23:28:48.456Z,98419.59
2023-09-30T23:30:57.046Z,98422.53
2023-09-30T23:33:08.352Z,98417.28
2023-09-30T23:35:16.696Z,98417.47
2023-09-30T23:37:26.813Z,98419.28
2023-09-30T23:39:37.305Z,98422.28
2023-09-30T23:41:50.144Z,98411.13
2023-09-30T23:44:01.351Z,98416.84
2023-09-30T23:46:13.335Z,98426.28
2023-09-30T23:48:22.877Z,98421.91
2023-09-30T23:50:31.395Z,98417.97
2023-09-30T23:52:37.139Z,98420.34
2023-09-30T23:54:47.036Z,98422.25
2023-09-30T23:56:58.165Z,98425.09
2023-09-30T23:59:11.012Z,98423.06
